Skyline Lakes, New Jersey
Current Conditions -  °F | °C
As of 10:53 AM on Saturday 20 Dec 2014 (Local Time) from KCDW Reporting Station
Overcast Overcast  
Wind Chill: 30°   Ceiling: 2400
Heat Index: 30°   Visibility: 10mi
Dew Point: 20°   Wind: 3mph
Humidity: 66%   Direction: NA
Pressure: 30.3"   Gusts: NA
Location:  41.1036°N, 74.2801°W
Report Text: KCDW 201553Z AUTO VRB03KT 10SM OVC024 M01/M07 A3030 RMK AO2 SLP268 T10111067 TSNO
Loading
Personal Weather Stations






























Interactive Weather Map New forecast layout! Learn more

10-Day Weather Forecast

Advertisements
Track Severe Weather on mobile